Aberdeen Dyce Airport


Codes: EGPD/ABZ
Name: Aberdeen Dyce Airport
City: Aberdeen
Country: United Kingdom
Elevation: 215 ft.
Website:
Wikipedia:

Photos at Aberdeen Dyce Airport


   Photos courtesy of SpottingLog. You can add your own sightings and photos by signing up for a free trial today.



No photos found.

Weather at Aberdeen Dyce Airport


Time (UTC)DescriptionTempratureWindCloud coverageVisibilityPressureHumidity
18-Apr-2024 00:00Few Clouds3°C4 mph, W16%10000m1020hPa86%
18-Apr-2024 03:00Broken Clouds3°C4 mph, SW70%10000m1020hPa83%
18-Apr-2024 06:00Overcast Clouds4°C4 mph, SW100%10000m1017hPa76%
18-Apr-2024 09:00Light Rain6°C9 mph, S100%10000m1015hPa80%
18-Apr-2024 12:00Light Rain6°C11 mph, SW100%10000m1011hPa91%
18-Apr-2024 15:00Light Rain9°C18 mph, W100%10000m1008hPa82%
18-Apr-2024 18:00Light Rain9°C20 mph, NW92%10000m1009hPa80%
18-Apr-2024 21:00Light Rain7°C13 mph, NW66%10000m1010hPa86%
19-Apr-2024 00:00Light Rain5°C18 mph, NW64%10000m1011hPa82%
19-Apr-2024 03:00Broken Clouds4°C20 mph, NW54%10000m1012hPa80%
19-Apr-2024 06:00Broken Clouds4°C22 mph, NW52%10000m1014hPa72%
19-Apr-2024 09:00Scattered Clouds7°C22 mph, NW25%10000m1016hPa66%
19-Apr-2024 12:00Scattered Clouds8°C25 mph, NW36%10000m1019hPa55%
19-Apr-2024 15:00Broken Clouds8°C22 mph, N53%10000m1022hPa56%
19-Apr-2024 18:00Scattered Clouds5°C13 mph, N49%10000m1024hPa68%
19-Apr-2024 21:00Scattered Clouds4°C9 mph, NW40%10000m1026hPa70%
20-Apr-2024 00:00Broken Clouds4°C9 mph, NW70%10000m1027hPa73%
20-Apr-2024 03:00Overcast Clouds4°C4 mph, NW100%10000m1028hPa76%
20-Apr-2024 06:00Overcast Clouds5°C4 mph, NW100%10000m1028hPa72%
20-Apr-2024 09:00Overcast Clouds9°C11 mph, NW85%10000m1029hPa61%
20-Apr-2024 12:00Overcast Clouds11°C9 mph, N88%10000m1029hPa55%
20-Apr-2024 15:00Overcast Clouds10°C2 mph, E95%10000m1030hPa64%
20-Apr-2024 18:00Overcast Clouds8°C4 mph, SE97%10000m1031hPa80%
20-Apr-2024 21:00Overcast Clouds7°C2 mph, SW100%10000m1031hPa78%
21-Apr-2024 00:00Overcast Clouds8°C0 mph, SW100%10000m1031hPa80%
21-Apr-2024 03:00Light Rain8°C2 mph, NW100%10000m1032hPa82%
21-Apr-2024 06:00Overcast Clouds8°C4 mph, N100%10000m1033hPa88%
21-Apr-2024 09:00Light Rain9°C7 mph, NW100%10000m1034hPa87%
21-Apr-2024 12:00Overcast Clouds9°C7 mph, NW100%10000m1034hPa89%
21-Apr-2024 15:00Overcast Clouds10°C7 mph, N100%10000m1035hPa90%
21-Apr-2024 18:00Overcast Clouds9°C4 mph, SE100%427m1035hPa95%
21-Apr-2024 21:00Overcast Clouds7°C2 mph, SE98%10000m1036hPa97%
22-Apr-2024 00:00Overcast Clouds7°C2 mph, S99%10000m1036hPa93%
22-Apr-2024 03:00Overcast Clouds7°C2 mph, S100%10000m1036hPa94%
22-Apr-2024 06:00Overcast Clouds8°C2 mph, NW100%10000m1035hPa92%
22-Apr-2024 09:00Light Rain8°C2 mph, N100%10000m1035hPa91%
22-Apr-2024 12:00Light Rain10°C4 mph, N100%10000m1034hPa83%
22-Apr-2024 15:00Light Rain9°C7 mph, N100%10000m1033hPa88%
22-Apr-2024 18:00Light Rain8°C4 mph, N100%10000m1032hPa91%
22-Apr-2024 21:00Overcast Clouds8°C4 mph, NW100%10000m1032hPa94%